sensor_id;sensor_type;location;lat;lon;timestamp;temperature;humidity
15111;DHT22;7656;51.954;7.998;2022-11-10T00:03:15;11.70;99.90
15111;DHT22;7656;51.954;7.998;2022-11-10T00:07:55;11.60;99.90
15111;DHT22;7656;51.954;7.998;2022-11-10T00:12:35;11.60;99.90
15111;DHT22;7656;51.954;7.998;2022-11-10T00:17:16;11.70;99.90
15111;DHT22;7656;51.954;7.998;2022-11-10T00:21:56;11.60;99.90
15111;DHT22;7656;51.954;7.998;2022-11-10T00:26:36;11.70;99.90
15111;DHT22;7656;51.954;7.998;2022-11-10T00:31:16;11.60;99.90
15111;DHT22;7656;51.954;7.998;2022-11-10T00:35:59;11.60;99.90
15111;DHT22;7656;51.954;7.998;2022-11-10T00:40:39;11.60;99.90
15111;DHT22;7656;51.954;7.998;2022-11-10T00:45:18;11.50;99.90
15111;DHT22;7656;51.954;7.998;2022-11-10T00:49:58;11.30;99.90
15111;DHT22;7656;51.954;7.998;2022-11-10T00:54:38;11.30;99.90
15111;DHT22;7656;51.954;7.998;2022-11-10T00:59:18;11.30;99.90
15111;DHT22;7656;51.954;7.998;2022-11-10T01:03:58;11.20;99.90
15111;DHT22;7656;51.954;7.998;2022-11-10T01:08:39;11.20;99.90
15111;DHT22;7656;51.954;7.998;2022-11-10T01:13:19;11.20;99.90
15111;DHT22;7656;51.954;7.998;2022-11-10T01:17:59;11.20;99.90
15111;DHT22;7656;51.954;7.998;2022-11-10T01:22:40;10.90;99.90
15111;DHT22;7656;51.954;7.998;2022-11-10T01:27:20;11.00;99.90
15111;DHT22;7656;51.954;7.998;2022-11-10T01:32:00;11.00;99.90
15111;DHT22;7656;51.954;7.998;2022-11-10T01:36:39;11.00;99.90
15111;DHT22;7656;51.954;7.998;2022-11-10T01:41:19;10.80;99.90
15111;DHT22;7656;51.954;7.998;2022-11-10T01:46:07;10.80;99.90
15111;DHT22;7656;51.954;7.998;2022-11-10T01:50:51;10.70;99.90
15111;DHT22;7656;51.954;7.998;2022-11-10T01:55:33;10.60;99.90
15111;DHT22;7656;51.954;7.998;2022-11-10T02:00:14;10.70;99.90
15111;DHT22;7656;51.954;7.998;2022-11-10T02:04:56;10.70;99.90
15111;DHT22;7656;51.954;7.998;2022-11-10T02:09:37;10.70;99.90
15111;DHT22;7656;51.954;7.998;2022-11-10T02:14:17;10.70;99.90
15111;DHT22;7656;51.954;7.998;2022-11-10T02:18:57;10.80;99.90
15111;DHT22;7656;51.954;7.998;2022-11-10T02:28:17;10.80;99.90
15111;DHT22;7656;51.954;7.998;2022-11-10T02:32:57;10.60;99.90
15111;DHT22;7656;51.954;7.998;2022-11-10T02:37:37;10.70;99.90
15111;DHT22;7656;51.954;7.998;2022-11-10T02:42:16;10.70;99.90
15111;DHT22;7656;51.954;7.998;2022-11-10T02:46:56;10.70;99.90
15111;DHT22;7656;51.954;7.998;2022-11-10T02:51:36;10.70;99.90
15111;DHT22;7656;51.954;7.998;2022-11-10T02:56:16;10.60;99.90
15111;DHT22;7656;51.954;7.998;2022-11-10T03:00:56;10.50;99.90
15111;DHT22;7656;51.954;7.998;2022-11-10T03:05:36;10.50;99.90
15111;DHT22;7656;51.954;7.998;2022-11-10T03:10:16;10.60;99.90
15111;DHT22;7656;51.954;7.998;2022-11-10T03:14:56;10.50;99.90
15111;DHT22;7656;51.954;7.998;2022-11-10T03:19:35;10.60;99.90
15111;DHT22;7656;51.954;7.998;2022-11-10T03:24:15;10.60;99.90
15111;DHT22;7656;51.954;7.998;2022-11-10T03:28:55;10.50;99.90
15111;DHT22;7656;51.954;7.998;2022-11-10T03:33:35;10.50;99.90
15111;DHT22;7656;51.954;7.998;2022-11-10T03:38:15;10.50;99.90
15111;DHT22;7656;51.954;7.998;2022-11-10T03:42:55;10.60;99.90
15111;DHT22;7656;51.954;7.998;2022-11-10T03:47:34;10.60;99.90
15111;DHT22;7656;51.954;7.998;2022-11-10T03:52:14;10.50;99.90
15111;DHT22;7656;51.954;7.998;2022-11-10T03:56:54;10.60;99.90
15111;DHT22;7656;51.954;7.998;2022-11-10T04:01:35;10.60;99.90
15111;DHT22;7656;51.954;7.998;2022-11-10T04:06:15;10.40;99.90
15111;DHT22;7656;51.954;7.998;2022-11-10T04:11:13;10.50;99.90
15111;DHT22;7656;51.954;7.998;2022-11-10T04:16:14;10.40;99.90
15111;DHT22;7656;51.954;7.998;2022-11-10T04:21:01;10.40;99.90
15111;DHT22;7656;51.954;7.998;2022-11-10T04:25:41;10.50;99.90
15111;DHT22;7656;51.954;7.998;2022-11-10T04:30:43;10.70;99.90
15111;DHT22;7656;51.954;7.998;2022-11-10T04:35:22;10.70;99.90
15111;DHT22;7656;51.954;7.998;2022-11-10T04:40:02;10.60;99.90
15111;DHT22;7656;51.954;7.998;2022-11-10T04:44:43;10.70;99.90
15111;DHT22;7656;51.954;7.998;2022-11-10T04:49:23;10.50;99.90
15111;DHT22;7656;51.954;7.998;2022-11-10T04:54:04;10.60;99.90
15111;DHT22;7656;51.954;7.998;2022-11-10T04:58:45;10.60;99.90
15111;DHT22;7656;51.954;7.998;2022-11-10T05:03:25;10.60;99.90
15111;DHT22;7656;51.954;7.998;2022-11-10T05:08:06;10.60;99.90
15111;DHT22;7656;51.954;7.998;2022-11-10T05:12:46;10.70;99.90
15111;DHT22;7656;51.954;7.998;2022-11-10T05:17:26;10.60;99.90
15111;DHT22;7656;51.954;7.998;2022-11-10T05:22:05;10.60;99.90
15111;DHT22;7656;51.954;7.998;2022-11-10T05:26:46;10.60;99.90
15111;DHT22;7656;51.954;7.998;2022-11-10T05:31:26;10.70;99.90
15111;DHT22;7656;51.954;7.998;2022-11-10T05:36:07;10.70;99.90
15111;DHT22;7656;51.954;7.998;2022-11-10T05:40:48;10.70;99.90
15111;DHT22;7656;51.954;7.998;2022-11-10T05:45:28;10.60;99.90
15111;DHT22;7656;51.954;7.998;2022-11-10T05:50:08;10.50;99.90
15111;DHT22;7656;51.954;7.998;2022-11-10T05:54:48;10.50;99.90
15111;DHT22;7656;51.954;7.998;2022-11-10T05:59:28;10.50;99.90
15111;DHT22;7656;51.954;7.998;2022-11-10T06:04:07;10.50;99.90
15111;DHT22;7656;51.954;7.998;2022-11-10T06:08:48;10.50;99.90
15111;DHT22;7656;51.954;7.998;2022-11-10T06:13:28;10.40;99.90
15111;DHT22;7656;51.954;7.998;2022-11-10T06:18:07;10.30;99.90
15111;DHT22;7656;51.954;7.998;2022-11-10T06:23:02;10.20;99.90
15111;DHT22;7656;51.954;7.998;2022-11-10T06:27:43;10.00;99.90
15111;DHT22;7656;51.954;7.998;2022-11-10T06:32:23;9.90;99.90
15111;DHT22;7656;51.954;7.998;2022-11-10T06:37:03;10.00;99.90
15111;DHT22;7656;51.954;7.998;2022-11-10T06:41:43;10.10;99.90
15111;DHT22;7656;51.954;7.998;2022-11-10T06:46:22;10.20;99.90
15111;DHT22;7656;51.954;7.998;2022-11-10T06:51:03;10.30;99.90
15111;DHT22;7656;51.954;7.998;2022-11-10T06:55:43;10.40;99.90
15111;DHT22;7656;51.954;7.998;2022-11-10T07:00:24;10.60;99.90
15111;DHT22;7656;51.954;7.998;2022-11-10T07:05:05;10.80;99.90
15111;DHT22;7656;51.954;7.998;2022-11-10T07:09:45;11.00;99.90
15111;DHT22;7656;51.954;7.998;2022-11-10T07:14:25;11.00;99.90
15111;DHT22;7656;51.954;7.998;2022-11-10T07:19:05;11.20;99.90
15111;DHT22;7656;51.954;7.998;2022-11-10T07:23:44;11.50;99.90
15111;DHT22;7656;51.954;7.998;2022-11-10T07:28:25;11.70;99.90
15111;DHT22;7656;51.954;7.998;2022-11-10T07:33:08;12.00;99.90
15111;DHT22;7656;51.954;7.998;2022-11-10T07:37:49;12.20;99.90
15111;DHT22;7656;51.954;7.998;2022-11-10T07:42:29;12.10;99.90
15111;DHT22;7656;51.954;7.998;2022-11-10T07:47:09;12.20;99.90
15111;DHT22;7656;51.954;7.998;2022-11-10T07:51:49;12.50;99.90
15111;DHT22;7656;51.954;7.998;2022-11-10T07:56:29;12.90;99.90
15111;DHT22;7656;51.954;7.998;2022-11-10T08:01:09;13.60;99.90
15111;DHT22;7656;51.954;7.998;2022-11-10T08:05:49;14.60;99.90
15111;DHT22;7656;51.954;7.998;2022-11-10T08:10:29;17.00;99.90
15111;DHT22;7656;51.954;7.998;2022-11-10T08:15:10;20.10;99.90
15111;DHT22;7656;51.954;7.998;2022-11-10T08:19:50;22.80;99.90
15111;DHT22;7656;51.954;7.998;2022-11-10T08:24:30;24.50;99.90
15111;DHT22;7656;51.954;7.998;2022-11-10T08:29:10;25.40;99.90
15111;DHT22;7656;51.954;7.998;2022-11-10T08:33:49;26.10;99.90
15111;DHT22;7656;51.954;7.998;2022-11-10T08:38:29;26.50;99.90
15111;DHT22;7656;51.954;7.998;2022-11-10T08:43:11;27.10;99.90
15111;DHT22;7656;51.954;7.998;2022-11-10T08:47:59;26.80;99.90
15111;DHT22;7656;51.954;7.998;2022-11-10T08:52:40;26.10;99.90
15111;DHT22;7656;51.954;7.998;2022-11-10T08:57:20;26.00;99.90
15111;DHT22;7656;51.954;7.998;2022-11-10T09:02:00;26.40;99.90
15111;DHT22;7656;51.954;7.998;2022-11-10T09:06:39;26.70;99.90
15111;DHT22;7656;51.954;7.998;2022-11-10T09:11:19;26.70;99.90
15111;DHT22;7656;51.954;7.998;2022-11-10T09:16:00;26.10;99.90
15111;DHT22;7656;51.954;7.998;2022-11-10T09:20:41;25.50;99.90
15111;DHT22;7656;51.954;7.998;2022-11-10T09:25:21;25.10;99.90
15111;DHT22;7656;51.954;7.998;2022-11-10T09:30:06;23.90;99.90
15111;DHT22;7656;51.954;7.998;2022-11-10T09:34:46;22.40;99.90
15111;DHT22;7656;51.954;7.998;2022-11-10T09:39:26;21.70;99.90
15111;DHT22;7656;51.954;7.998;2022-11-10T09:44:21;20.00;99.90
15111;DHT22;7656;51.954;7.998;2022-11-10T09:54:33;19.00;99.90
15111;DHT22;7656;51.954;7.998;2022-11-10T09:59:36;18.20;99.90
15111;DHT22;7656;51.954;7.998;2022-11-10T10:09:53;17.70;99.90
15111;DHT22;7656;51.954;7.998;2022-11-10T10:25:44;18.00;99.90
15111;DHT22;7656;51.954;7.998;2022-11-10T10:30:24;17.20;99.90
15111;DHT22;7656;51.954;7.998;2022-11-10T10:35:05;16.90;99.90
15111;DHT22;7656;51.954;7.998;2022-11-10T10:39:48;16.80;99.90
15111;DHT22;7656;51.954;7.998;2022-11-10T10:44:29;17.50;99.90
15111;DHT22;7656;51.954;7.998;2022-11-10T10:54:01;17.90;99.90
15111;DHT22;7656;51.954;7.998;2022-11-10T11:08:16;18.30;99.90
15111;DHT22;7656;51.954;7.998;2022-11-10T11:18:14;18.20;99.90
15111;DHT22;7656;51.954;7.998;2022-11-10T11:23:02;18.40;99.90
15111;DHT22;7656;51.954;7.998;2022-11-10T11:28:25;18.30;99.90
15111;DHT22;7656;51.954;7.998;2022-11-10T11:38:18;18.80;99.90
15111;DHT22;7656;51.954;7.998;2022-11-10T11:43:06;19.40;99.90
15111;DHT22;7656;51.954;7.998;2022-11-10T11:52:54;19.10;99.90
15111;DHT22;7656;51.954;7.998;2022-11-10T12:13:03;19.60;99.90
15111;DHT22;7656;51.954;7.998;2022-11-10T12:28:10;20.00;99.90
15111;DHT22;7656;51.954;7.998;2022-11-10T12:33:01;20.40;99.90
15111;DHT22;7656;51.954;7.998;2022-11-10T12:38:16;20.90;99.90
15111;DHT22;7656;51.954;7.998;2022-11-10T12:43:01;20.60;99.90
15111;DHT22;7656;51.954;7.998;2022-11-10T12:47:43;20.90;99.90
15111;DHT22;7656;51.954;7.998;2022-11-10T12:52:41;19.90;99.90
15111;DHT22;7656;51.954;7.998;2022-11-10T12:57:26;18.80;99.90
15111;DHT22;7656;51.954;7.998;2022-11-10T13:02:27;19.30;99.90
15111;DHT22;7656;51.954;7.998;2022-11-10T13:07:12;20.40;99.90
15111;DHT22;7656;51.954;7.998;2022-11-10T13:12:17;21.60;99.90
15111;DHT22;7656;51.954;7.998;2022-11-10T13:16:58;22.80;99.90
15111;DHT22;7656;51.954;7.998;2022-11-10T13:22:01;22.00;99.90
15111;DHT22;7656;51.954;7.998;2022-11-10T13:36:09;22.60;99.90
15111;DHT22;7656;51.954;7.998;2022-11-10T13:40:49;22.80;99.90
15111;DHT22;7656;51.954;7.998;2022-11-10T13:50:28;21.90;99.90
15111;DHT22;7656;51.954;7.998;2022-11-10T13:55:44;21.60;99.90
15111;DHT22;7656;51.954;7.998;2022-11-10T14:00:31;22.40;99.90
15111;DHT22;7656;51.954;7.998;2022-11-10T14:10:19;21.50;99.90
15111;DHT22;7656;51.954;7.998;2022-11-10T14:15:19;20.50;99.90
15111;DHT22;7656;51.954;7.998;2022-11-10T14:20:02;19.90;99.90
15111;DHT22;7656;51.954;7.998;2022-11-10T14:24:53;19.20;99.90
15111;DHT22;7656;51.954;7.998;2022-11-10T14:29:37;18.70;99.90
15111;DHT22;7656;51.954;7.998;2022-11-10T14:34:18;18.60;99.90
15111;DHT22;7656;51.954;7.998;2022-11-10T14:38:58;18.30;99.90
15111;DHT22;7656;51.954;7.998;2022-11-10T14:44:02;18.20;99.90
15111;DHT22;7656;51.954;7.998;2022-11-10T14:48:43;18.00;99.90
15111;DHT22;7656;51.954;7.998;2022-11-10T14:53:37;17.60;99.90
15111;DHT22;7656;51.954;7.998;2022-11-10T14:58:35;16.90;99.90
15111;DHT22;7656;51.954;7.998;2022-11-10T15:03:23;16.70;99.90
15111;DHT22;7656;51.954;7.998;2022-11-10T15:08:12;16.50;99.90
15111;DHT22;7656;51.954;7.998;2022-11-10T15:18:27;16.20;99.90
15111;DHT22;7656;51.954;7.998;2022-11-10T15:23:20;16.00;99.90
15111;DHT22;7656;51.954;7.998;2022-11-10T15:32:50;15.70;99.90
15111;DHT22;7656;51.954;7.998;2022-11-10T15:37:30;15.60;99.90
15111;DHT22;7656;51.954;7.998;2022-11-10T15:42:15;15.50;99.90
15111;DHT22;7656;51.954;7.998;2022-11-10T15:46:58;15.40;99.90
15111;DHT22;7656;51.954;7.998;2022-11-10T15:51:38;15.30;99.90
15111;DHT22;7656;51.954;7.998;2022-11-10T15:56:21;15.20;99.90
15111;DHT22;7656;51.954;7.998;2022-11-10T16:01:02;15.00;99.90
15111;DHT22;7656;51.954;7.998;2022-11-10T16:05:43;14.90;99.90
15111;DHT22;7656;51.954;7.998;2022-11-10T16:10:23;14.90;99.90
15111;DHT22;7656;51.954;7.998;2022-11-10T16:15:03;14.60;99.90
15111;DHT22;7656;51.954;7.998;2022-11-10T16:19:47;14.40;99.90
15111;DHT22;7656;51.954;7.998;2022-11-10T16:24:27;14.40;99.90
15111;DHT22;7656;51.954;7.998;2022-11-10T16:29:11;14.20;99.90
15111;DHT22;7656;51.954;7.998;2022-11-10T16:33:52;14.20;99.90
15111;DHT22;7656;51.954;7.998;2022-11-10T16:38:32;14.10;99.90
15111;DHT22;7656;51.954;7.998;2022-11-10T16:43:16;14.00;99.90
15111;DHT22;7656;51.954;7.998;2022-11-10T16:47:56;13.90;99.90
15111;DHT22;7656;51.954;7.998;2022-11-10T16:52:36;13.90;99.90
15111;DHT22;7656;51.954;7.998;2022-11-10T16:57:17;13.70;99.90
15111;DHT22;7656;51.954;7.998;2022-11-10T17:01:59;13.50;99.90
15111;DHT22;7656;51.954;7.998;2022-11-10T17:06:39;13.40;99.90
15111;DHT22;7656;51.954;7.998;2022-11-10T17:11:19;13.30;99.90
15111;DHT22;7656;51.954;7.998;2022-11-10T17:16:11;12.90;99.90
15111;DHT22;7656;51.954;7.998;2022-11-10T17:21:05;12.70;99.90
15111;DHT22;7656;51.954;7.998;2022-11-10T17:25:45;12.70;99.90
15111;DHT22;7656;51.954;7.998;2022-11-10T17:30:25;12.60;99.90
15111;DHT22;7656;51.954;7.998;2022-11-10T17:35:05;12.60;99.90
15111;DHT22;7656;51.954;7.998;2022-11-10T17:39:45;12.70;99.90
15111;DHT22;7656;51.954;7.998;2022-11-10T17:44:25;12.60;99.90
15111;DHT22;7656;51.954;7.998;2022-11-10T17:49:05;12.60;99.90
15111;DHT22;7656;51.954;7.998;2022-11-10T17:53:45;12.60;99.90
15111;DHT22;7656;51.954;7.998;2022-11-10T17:58:24;12.60;99.90
15111;DHT22;7656;51.954;7.998;2022-11-10T18:03:04;12.50;99.90
15111;DHT22;7656;51.954;7.998;2022-11-10T18:07:49;12.60;99.90
15111;DHT22;7656;51.954;7.998;2022-11-10T18:12:29;12.60;99.90
15111;DHT22;7656;51.954;7.998;2022-11-10T18:17:09;12.60;99.90
15111;DHT22;7656;51.954;7.998;2022-11-10T18:21:49;12.60;99.90
15111;DHT22;7656;51.954;7.998;2022-11-10T18:26:29;12.50;99.90
15111;DHT22;7656;51.954;7.998;2022-11-10T18:31:11;12.30;99.90
15111;DHT22;7656;51.954;7.998;2022-11-10T18:35:51;12.20;99.90
15111;DHT22;7656;51.954;7.998;2022-11-10T18:40:31;12.20;99.90
15111;DHT22;7656;51.954;7.998;2022-11-10T18:45:11;12.20;99.90
15111;DHT22;7656;51.954;7.998;2022-11-10T18:49:51;12.10;99.90
15111;DHT22;7656;51.954;7.998;2022-11-10T18:54:31;11.90;99.90
15111;DHT22;7656;51.954;7.998;2022-11-10T18:59:11;12.00;99.90
15111;DHT22;7656;51.954;7.998;2022-11-10T19:03:51;12.00;99.90
15111;DHT22;7656;51.954;7.998;2022-11-10T19:08:31;12.00;99.90
15111;DHT22;7656;51.954;7.998;2022-11-10T19:13:11;12.10;99.90
15111;DHT22;7656;51.954;7.998;2022-11-10T19:17:53;12.10;99.90
15111;DHT22;7656;51.954;7.998;2022-11-10T19:22:33;12.10;99.90
15111;DHT22;7656;51.954;7.998;2022-11-10T19:27:13;11.80;99.90
15111;DHT22;7656;51.954;7.998;2022-11-10T19:31:53;11.60;99.90
15111;DHT22;7656;51.954;7.998;2022-11-10T19:36:33;11.60;99.90
15111;DHT22;7656;51.954;7.998;2022-11-10T19:41:19;11.70;99.90
15111;DHT22;7656;51.954;7.998;2022-11-10T19:46:27;11.70;99.90
15111;DHT22;7656;51.954;7.998;2022-11-10T19:51:05;11.70;99.90
15111;DHT22;7656;51.954;7.998;2022-11-10T19:55:47;11.70;99.90
15111;DHT22;7656;51.954;7.998;2022-11-10T20:00:27;11.70;99.90
15111;DHT22;7656;51.954;7.998;2022-11-10T20:05:06;11.60;99.90
15111;DHT22;7656;51.954;7.998;2022-11-10T20:09:52;11.60;99.90
15111;DHT22;7656;51.954;7.998;2022-11-10T20:14:33;11.60;99.90
15111;DHT22;7656;51.954;7.998;2022-11-10T20:19:13;11.60;99.90
15111;DHT22;7656;51.954;7.998;2022-11-10T20:23:54;11.40;99.90
15111;DHT22;7656;51.954;7.998;2022-11-10T20:28:35;11.50;99.90
15111;DHT22;7656;51.954;7.998;2022-11-10T20:33:16;11.60;99.90
15111;DHT22;7656;51.954;7.998;2022-11-10T20:37:56;11.60;99.90
15111;DHT22;7656;51.954;7.998;2022-11-10T20:42:36;11.50;99.90
15111;DHT22;7656;51.954;7.998;2022-11-10T20:47:16;11.50;99.90
15111;DHT22;7656;51.954;7.998;2022-11-10T20:51:56;11.60;99.90
15111;DHT22;7656;51.954;7.998;2022-11-10T20:56:37;11.50;99.90
15111;DHT22;7656;51.954;7.998;2022-11-10T21:01:18;11.50;99.90
15111;DHT22;7656;51.954;7.998;2022-11-10T21:05:59;11.50;99.90
15111;DHT22;7656;51.954;7.998;2022-11-10T21:10:39;11.40;99.90
15111;DHT22;7656;51.954;7.998;2022-11-10T21:15:20;11.20;99.90
15111;DHT22;7656;51.954;7.998;2022-11-10T21:19:59;11.30;99.90
15111;DHT22;7656;51.954;7.998;2022-11-10T21:24:39;11.30;99.90
15111;DHT22;7656;51.954;7.998;2022-11-10T21:29:19;11.20;99.90
15111;DHT22;7656;51.954;7.998;2022-11-10T21:33:59;11.20;99.90
15111;DHT22;7656;51.954;7.998;2022-11-10T21:38:39;11.10;99.90
15111;DHT22;7656;51.954;7.998;2022-11-10T21:43:19;11.10;99.90
15111;DHT22;7656;51.954;7.998;2022-11-10T21:47:59;11.00;99.90
15111;DHT22;7656;51.954;7.998;2022-11-10T21:52:39;11.00;99.90
15111;DHT22;7656;51.954;7.998;2022-11-10T21:57:19;11.00;99.90
15111;DHT22;7656;51.954;7.998;2022-11-10T22:01:59;10.80;99.90
15111;DHT22;7656;51.954;7.998;2022-11-10T22:06:39;10.60;99.90
15111;DHT22;7656;51.954;7.998;2022-11-10T22:11:38;10.50;99.90
15111;DHT22;7656;51.954;7.998;2022-11-10T22:16:50;10.60;99.90
15111;DHT22;7656;51.954;7.998;2022-11-10T22:21:48;10.70;99.90
15111;DHT22;7656;51.954;7.998;2022-11-10T22:26:29;10.50;99.90
15111;DHT22;7656;51.954;7.998;2022-11-10T22:31:09;10.40;99.90
15111;DHT22;7656;51.954;7.998;2022-11-10T22:35:54;10.60;99.90
15111;DHT22;7656;51.954;7.998;2022-11-10T22:40:35;10.50;99.90
15111;DHT22;7656;51.954;7.998;2022-11-10T22:45:35;10.50;99.90
15111;DHT22;7656;51.954;7.998;2022-11-10T22:50:15;10.40;99.90
15111;DHT22;7656;51.954;7.998;2022-11-10T22:54:55;10.30;99.90
15111;DHT22;7656;51.954;7.998;2022-11-10T22:59:36;10.50;99.90
15111;DHT22;7656;51.954;7.998;2022-11-10T23:04:16;10.60;99.90
15111;DHT22;7656;51.954;7.998;2022-11-10T23:08:57;10.70;99.90
15111;DHT22;7656;51.954;7.998;2022-11-10T23:13:38;10.40;99.90
15111;DHT22;7656;51.954;7.998;2022-11-10T23:18:18;10.20;99.90
15111;DHT22;7656;51.954;7.998;2022-11-10T23:22:58;10.40;99.90
15111;DHT22;7656;51.954;7.998;2022-11-10T23:27:38;10.50;99.90
15111;DHT22;7656;51.954;7.998;2022-11-10T23:32:18;10.60;99.90
15111;DHT22;7656;51.954;7.998;2022-11-10T23:36:58;10.50;99.90
15111;DHT22;7656;51.954;7.998;2022-11-10T23:41:38;10.60;99.90
15111;DHT22;7656;51.954;7.998;2022-11-10T23:46:18;10.50;99.90
15111;DHT22;7656;51.954;7.998;2022-11-10T23:50:58;10.50;99.90
15111;DHT22;7656;51.954;7.998;2022-11-10T23:55:38;10.50;99.90
